sensor_id;sensor_type;location;lat;lon;timestamp;P1;durP1;ratioP1;P2;durP2;ratioP2
47009;SDS011;59230;54.164;-3.124;2023-04-27T00:01:31;16.40;;;7.78;;
47009;SDS011;59230;54.164;-3.124;2023-04-27T00:03:58;19.48;;;8.07;;
47009;SDS011;59230;54.164;-3.124;2023-04-27T00:06:27;16.70;;;8.13;;
47009;SDS011;59230;54.164;-3.124;2023-04-27T00:08:53;14.35;;;8.30;;
47009;SDS011;59230;54.164;-3.124;2023-04-27T00:11:21;14.98;;;8.07;;
47009;SDS011;59230;54.164;-3.124;2023-04-27T00:13:48;13.60;;;8.30;;
47009;SDS011;59230;54.164;-3.124;2023-04-27T00:16:16;18.38;;;8.38;;
47009;SDS011;59230;54.164;-3.124;2023-04-27T00:18:42;15.50;;;8.63;;
47009;SDS011;59230;54.164;-3.124;2023-04-27T00:21:07;13.60;;;8.23;;
47009;SDS011;59230;54.164;-3.124;2023-04-27T00:23:35;15.25;;;8.18;;
47009;SDS011;59230;54.164;-3.124;2023-04-27T00:26:03;17.00;;;7.93;;
47009;SDS011;59230;54.164;-3.124;2023-04-27T00:28:29;19.23;;;7.95;;
47009;SDS011;59230;54.164;-3.124;2023-04-27T00:30:57;17.13;;;8.30;;
47009;SDS011;59230;54.164;-3.124;2023-04-27T00:33:25;17.80;;;8.95;;
47009;SDS011;59230;54.164;-3.124;2023-04-27T00:35:53;17.35;;;8.98;;
47009;SDS011;59230;54.164;-3.124;2023-04-27T00:38:19;14.23;;;8.45;;
47009;SDS011;59230;54.164;-3.124;2023-04-27T00:40:44;19.25;;;8.60;;
47009;SDS011;59230;54.164;-3.124;2023-04-27T00:43:13;15.68;;;8.75;;
47009;SDS011;59230;54.164;-3.124;2023-04-27T00:45:40;20.42;;;9.40;;
47009;SDS011;59230;54.164;-3.124;2023-04-27T00:48:09;16.73;;;8.20;;
47009;SDS011;59230;54.164;-3.124;2023-04-27T00:50:38;17.55;;;9.20;;
47009;SDS011;59230;54.164;-3.124;2023-04-27T00:53:05;17.73;;;10.25;;
47009;SDS011;59230;54.164;-3.124;2023-04-27T00:55:31;17.27;;;8.52;;
47009;SDS011;59230;54.164;-3.124;2023-04-27T00:57:57;15.48;;;8.98;;
47009;SDS011;59230;54.164;-3.124;2023-04-27T01:00:24;21.42;;;9.35;;
47009;SDS011;59230;54.164;-3.124;2023-04-27T01:02:50;24.33;;;10.13;;
47009;SDS011;59230;54.164;-3.124;2023-04-27T01:05:17;19.70;;;9.30;;
47009;SDS011;59230;54.164;-3.124;2023-04-27T01:07:43;17.80;;;8.98;;
47009;SDS011;59230;54.164;-3.124;2023-04-27T01:10:08;19.17;;;8.43;;
47009;SDS011;59230;54.164;-3.124;2023-04-27T01:12:35;14.57;;;8.98;;
47009;SDS011;59230;54.164;-3.124;2023-04-27T01:15:04;25.05;;;9.82;;
47009;SDS011;59230;54.164;-3.124;2023-04-27T01:17:30;15.50;;;9.40;;
47009;SDS011;59230;54.164;-3.124;2023-04-27T01:19:59;14.93;;;9.60;;
47009;SDS011;59230;54.164;-3.124;2023-04-27T01:22:28;23.75;;;10.30;;
47009;SDS011;59230;54.164;-3.124;2023-04-27T01:24:55;20.48;;;10.10;;
47009;SDS011;59230;54.164;-3.124;2023-04-27T01:27:20;15.40;;;9.68;;
47009;SDS011;59230;54.164;-3.124;2023-04-27T01:29:47;19.13;;;9.90;;
47009;SDS011;59230;54.164;-3.124;2023-04-27T01:32:13;17.02;;;9.60;;
47009;SDS011;59230;54.164;-3.124;2023-04-27T01:34:41;17.00;;;10.50;;
47009;SDS011;59230;54.164;-3.124;2023-04-27T01:37:08;17.67;;;9.95;;
47009;SDS011;59230;54.164;-3.124;2023-04-27T01:39:33;16.92;;;10.30;;
47009;SDS011;59230;54.164;-3.124;2023-04-27T01:42:02;18.45;;;9.93;;
47009;SDS011;59230;54.164;-3.124;2023-04-27T01:44:30;17.90;;;11.00;;
47009;SDS011;59230;54.164;-3.124;2023-04-27T01:46:55;22.38;;;10.93;;
47009;SDS011;59230;54.164;-3.124;2023-04-27T01:49:21;15.85;;;10.63;;
47009;SDS011;59230;54.164;-3.124;2023-04-27T01:51:48;18.65;;;10.82;;
47009;SDS011;59230;54.164;-3.124;2023-04-27T01:54:14;19.58;;;10.57;;
47009;SDS011;59230;54.164;-3.124;2023-04-27T01:56:42;17.48;;;10.32;;
47009;SDS011;59230;54.164;-3.124;2023-04-27T01:59:08;23.98;;;11.13;;
47009;SDS011;59230;54.164;-3.124;2023-04-27T02:01:36;18.10;;;11.10;;
47009;SDS011;59230;54.164;-3.124;2023-04-27T02:04:03;22.30;;;11.73;;
47009;SDS011;59230;54.164;-3.124;2023-04-27T02:06:30;23.25;;;11.48;;
47009;SDS011;59230;54.164;-3.124;2023-04-27T02:08:55;18.88;;;11.90;;
47009;SDS011;59230;54.164;-3.124;2023-04-27T02:11:24;22.15;;;11.43;;
47009;SDS011;59230;54.164;-3.124;2023-04-27T02:13:53;26.25;;;12.85;;
47009;SDS011;59230;54.164;-3.124;2023-04-27T02:16:19;27.27;;;13.15;;
47009;SDS011;59230;54.164;-3.124;2023-04-27T02:18:45;27.23;;;14.00;;
47009;SDS011;59230;54.164;-3.124;2023-04-27T02:21:11;30.17;;;13.48;;
47009;SDS011;59230;54.164;-3.124;2023-04-27T02:23:38;22.75;;;12.35;;
47009;SDS011;59230;54.164;-3.124;2023-04-27T02:26:05;23.27;;;12.38;;
47009;SDS011;59230;54.164;-3.124;2023-04-27T02:28:32;23.00;;;12.18;;
47009;SDS011;59230;54.164;-3.124;2023-04-27T02:30:57;20.50;;;12.15;;
47009;SDS011;59230;54.164;-3.124;2023-04-27T02:33:26;25.30;;;12.07;;
47009;SDS011;59230;54.164;-3.124;2023-04-27T02:35:53;19.58;;;11.85;;
47009;SDS011;59230;54.164;-3.124;2023-04-27T02:38:18;24.08;;;11.93;;
47009;SDS011;59230;54.164;-3.124;2023-04-27T02:40:44;26.45;;;12.18;;
47009;SDS011;59230;54.164;-3.124;2023-04-27T02:43:09;21.85;;;11.88;;
47009;SDS011;59230;54.164;-3.124;2023-04-27T02:45:38;19.85;;;11.07;;
47009;SDS011;59230;54.164;-3.124;2023-04-27T02:48:06;23.70;;;11.38;;
47009;SDS011;59230;54.164;-3.124;2023-04-27T02:50:32;25.63;;;11.73;;
47009;SDS011;59230;54.164;-3.124;2023-04-27T02:52:58;18.98;;;11.88;;
47009;SDS011;59230;54.164;-3.124;2023-04-27T02:55:26;17.35;;;11.07;;
47009;SDS011;59230;54.164;-3.124;2023-04-27T02:57:54;22.88;;;12.10;;
47009;SDS011;59230;54.164;-3.124;2023-04-27T03:00:19;26.63;;;12.65;;
47009;SDS011;59230;54.164;-3.124;2023-04-27T03:02:45;26.75;;;12.73;;
47009;SDS011;59230;54.164;-3.124;2023-04-27T03:05:12;21.23;;;12.77;;
47009;SDS011;59230;54.164;-3.124;2023-04-27T03:07:43;22.33;;;12.38;;
47009;SDS011;59230;54.164;-3.124;2023-04-27T03:10:11;24.23;;;12.00;;
47009;SDS011;59230;54.164;-3.124;2023-04-27T03:12:38;22.13;;;12.65;;
47009;SDS011;59230;54.164;-3.124;2023-04-27T03:15:04;28.50;;;12.27;;
47009;SDS011;59230;54.164;-3.124;2023-04-27T03:17:32;25.77;;;13.27;;
47009;SDS011;59230;54.164;-3.124;2023-04-27T03:19:58;24.25;;;12.88;;
47009;SDS011;59230;54.164;-3.124;2023-04-27T03:22:24;23.02;;;12.05;;
47009;SDS011;59230;54.164;-3.124;2023-04-27T03:24:50;25.48;;;12.27;;
47009;SDS011;59230;54.164;-3.124;2023-04-27T03:27:17;29.30;;;13.20;;
47009;SDS011;59230;54.164;-3.124;2023-04-27T03:29:43;21.83;;;11.95;;
47009;SDS011;59230;54.164;-3.124;2023-04-27T03:32:11;23.08;;;13.38;;
47009;SDS011;59230;54.164;-3.124;2023-04-27T03:34:38;25.58;;;13.23;;
47009;SDS011;59230;54.164;-3.124;2023-04-27T03:37:04;24.70;;;12.82;;
47009;SDS011;59230;54.164;-3.124;2023-04-27T03:39:33;25.00;;;13.25;;
47009;SDS011;59230;54.164;-3.124;2023-04-27T03:42:00;27.55;;;12.35;;
47009;SDS011;59230;54.164;-3.124;2023-04-27T03:44:30;29.08;;;13.50;;
47009;SDS011;59230;54.164;-3.124;2023-04-27T03:47:00;35.13;;;14.02;;
47009;SDS011;59230;54.164;-3.124;2023-04-27T03:49:26;22.98;;;11.95;;
47009;SDS011;59230;54.164;-3.124;2023-04-27T03:51:51;24.83;;;13.18;;
47009;SDS011;59230;54.164;-3.124;2023-04-27T03:54:17;27.55;;;13.63;;
47009;SDS011;59230;54.164;-3.124;2023-04-27T03:56:42;21.23;;;12.02;;
47009;SDS011;59230;54.164;-3.124;2023-04-27T03:59:13;34.22;;;13.63;;
47009;SDS011;59230;54.164;-3.124;2023-04-27T04:01:40;30.60;;;13.43;;
47009;SDS011;59230;54.164;-3.124;2023-04-27T04:04:07;23.85;;;12.80;;
47009;SDS011;59230;54.164;-3.124;2023-04-27T04:06:32;29.10;;;13.60;;
47009;SDS011;59230;54.164;-3.124;2023-04-27T04:08:58;26.73;;;12.05;;
47009;SDS011;59230;54.164;-3.124;2023-04-27T04:11:24;25.48;;;13.00;;
47009;SDS011;59230;54.164;-3.124;2023-04-27T04:13:51;23.85;;;12.60;;
47009;SDS011;59230;54.164;-3.124;2023-04-27T04:16:18;26.55;;;13.10;;
47009;SDS011;59230;54.164;-3.124;2023-04-27T04:18:46;20.85;;;13.20;;
47009;SDS011;59230;54.164;-3.124;2023-04-27T04:21:14;26.95;;;13.73;;
47009;SDS011;59230;54.164;-3.124;2023-04-27T04:23:41;25.35;;;14.20;;
47009;SDS011;59230;54.164;-3.124;2023-04-27T04:26:07;26.58;;;12.55;;
47009;SDS011;59230;54.164;-3.124;2023-04-27T04:28:34;32.45;;;13.82;;
47009;SDS011;59230;54.164;-3.124;2023-04-27T04:31:01;34.92;;;15.20;;
47009;SDS011;59230;54.164;-3.124;2023-04-27T04:33:27;28.13;;;14.05;;
47009;SDS011;59230;54.164;-3.124;2023-04-27T04:35:53;23.23;;;12.27;;
47009;SDS011;59230;54.164;-3.124;2023-04-27T04:38:21;28.75;;;13.55;;
47009;SDS011;59230;54.164;-3.124;2023-04-27T04:40:50;26.95;;;13.27;;
47009;SDS011;59230;54.164;-3.124;2023-04-27T04:43:19;38.22;;;14.85;;
47009;SDS011;59230;54.164;-3.124;2023-04-27T04:45:46;29.38;;;14.15;;
47009;SDS011;59230;54.164;-3.124;2023-04-27T04:48:15;27.63;;;14.52;;
47009;SDS011;59230;54.164;-3.124;2023-04-27T04:50:44;30.48;;;14.25;;
47009;SDS011;59230;54.164;-3.124;2023-04-27T04:53:11;28.13;;;13.90;;
47009;SDS011;59230;54.164;-3.124;2023-04-27T04:55:39;28.05;;;14.50;;
47009;SDS011;59230;54.164;-3.124;2023-04-27T04:58:05;29.38;;;15.00;;
47009;SDS011;59230;54.164;-3.124;2023-04-27T05:00:30;27.42;;;14.80;;
47009;SDS011;59230;54.164;-3.124;2023-04-27T05:02:56;37.13;;;15.77;;
47009;SDS011;59230;54.164;-3.124;2023-04-27T05:05:23;38.15;;;15.57;;
47009;SDS011;59230;54.164;-3.124;2023-04-27T05:07:50;27.20;;;15.00;;
47009;SDS011;59230;54.164;-3.124;2023-04-27T05:10:18;27.83;;;14.18;;
47009;SDS011;59230;54.164;-3.124;2023-04-27T05:12:44;31.15;;;15.27;;
47009;SDS011;59230;54.164;-3.124;2023-04-27T05:15:11;31.52;;;15.35;;
47009;SDS011;59230;54.164;-3.124;2023-04-27T05:17:41;29.33;;;15.23;;
47009;SDS011;59230;54.164;-3.124;2023-04-27T05:20:08;30.27;;;14.60;;
47009;SDS011;59230;54.164;-3.124;2023-04-27T05:22:35;26.45;;;14.82;;
47009;SDS011;59230;54.164;-3.124;2023-04-27T05:25:04;28.80;;;14.80;;
47009;SDS011;59230;54.164;-3.124;2023-04-27T05:27:30;27.35;;;14.57;;
47009;SDS011;59230;54.164;-3.124;2023-04-27T05:29:56;29.98;;;15.50;;
47009;SDS011;59230;54.164;-3.124;2023-04-27T05:32:25;27.95;;;15.27;;
47009;SDS011;59230;54.164;-3.124;2023-04-27T05:34:53;32.75;;;15.68;;
47009;SDS011;59230;54.164;-3.124;2023-04-27T05:37:19;30.55;;;16.60;;
47009;SDS011;59230;54.164;-3.124;2023-04-27T05:39:46;28.40;;;14.93;;
47009;SDS011;59230;54.164;-3.124;2023-04-27T05:42:14;35.13;;;16.58;;
47009;SDS011;59230;54.164;-3.124;2023-04-27T05:44:42;37.17;;;15.93;;
47009;SDS011;59230;54.164;-3.124;2023-04-27T05:47:11;32.90;;;15.57;;
47009;SDS011;59230;54.164;-3.124;2023-04-27T05:49:39;31.10;;;15.85;;
47009;SDS011;59230;54.164;-3.124;2023-04-27T05:52:04;35.72;;;16.13;;
47009;SDS011;59230;54.164;-3.124;2023-04-27T05:54:30;38.25;;;16.15;;
47009;SDS011;59230;54.164;-3.124;2023-04-27T05:56:56;37.25;;;16.42;;
47009;SDS011;59230;54.164;-3.124;2023-04-27T05:59:23;35.42;;;16.58;;
47009;SDS011;59230;54.164;-3.124;2023-04-27T06:01:52;32.00;;;14.45;;
47009;SDS011;59230;54.164;-3.124;2023-04-27T06:04:17;35.28;;;16.60;;
47009;SDS011;59230;54.164;-3.124;2023-04-27T06:06:43;34.40;;;16.02;;
47009;SDS011;59230;54.164;-3.124;2023-04-27T06:09:10;31.75;;;14.85;;
47009;SDS011;59230;54.164;-3.124;2023-04-27T06:11:38;41.22;;;17.50;;
47009;SDS011;59230;54.164;-3.124;2023-04-27T06:14:03;34.25;;;15.85;;
47009;SDS011;59230;54.164;-3.124;2023-04-27T06:16:29;31.10;;;15.95;;
47009;SDS011;59230;54.164;-3.124;2023-04-27T06:18:58;32.28;;;16.17;;
47009;SDS011;59230;54.164;-3.124;2023-04-27T06:21:24;34.33;;;15.88;;
47009;SDS011;59230;54.164;-3.124;2023-04-27T06:23:50;35.95;;;16.67;;
47009;SDS011;59230;54.164;-3.124;2023-04-27T06:26:17;34.78;;;17.08;;
47009;SDS011;59230;54.164;-3.124;2023-04-27T06:28:44;33.92;;;17.60;;
47009;SDS011;59230;54.164;-3.124;2023-04-27T06:31:11;37.50;;;17.35;;
47009;SDS011;59230;54.164;-3.124;2023-04-27T06:33:37;32.28;;;16.48;;
47009;SDS011;59230;54.164;-3.124;2023-04-27T06:36:02;41.22;;;17.67;;
47009;SDS011;59230;54.164;-3.124;2023-04-27T06:38:29;42.63;;;17.85;;
47009;SDS011;59230;54.164;-3.124;2023-04-27T06:40:58;34.08;;;17.08;;
47009;SDS011;59230;54.164;-3.124;2023-04-27T06:43:25;39.67;;;17.70;;
47009;SDS011;59230;54.164;-3.124;2023-04-27T06:45:52;34.30;;;18.40;;
47009;SDS011;59230;54.164;-3.124;2023-04-27T06:48:17;31.00;;;16.30;;
47009;SDS011;59230;54.164;-3.124;2023-04-27T06:50:44;36.90;;;17.98;;
47009;SDS011;59230;54.164;-3.124;2023-04-27T06:53:10;43.58;;;17.33;;
47009;SDS011;59230;54.164;-3.124;2023-04-27T06:55:40;38.40;;;17.55;;
47009;SDS011;59230;54.164;-3.124;2023-04-27T06:58:05;36.40;;;18.02;;
47009;SDS011;59230;54.164;-3.124;2023-04-27T07:00:31;36.22;;;17.52;;
47009;SDS011;59230;54.164;-3.124;2023-04-27T07:02:57;41.40;;;17.10;;
47009;SDS011;59230;54.164;-3.124;2023-04-27T07:05:24;34.03;;;17.80;;
47009;SDS011;59230;54.164;-3.124;2023-04-27T07:07:51;37.70;;;16.98;;
47009;SDS011;59230;54.164;-3.124;2023-04-27T07:10:18;43.13;;;17.88;;
47009;SDS011;59230;54.164;-3.124;2023-04-27T07:12:44;38.45;;;16.77;;
47009;SDS011;59230;54.164;-3.124;2023-04-27T07:15:11;37.67;;;18.00;;
47009;SDS011;59230;54.164;-3.124;2023-04-27T07:17:37;41.72;;;18.40;;
47009;SDS011;59230;54.164;-3.124;2023-04-27T07:20:04;39.78;;;17.00;;
47009;SDS011;59230;54.164;-3.124;2023-04-27T07:22:31;42.05;;;17.45;;
47009;SDS011;59230;54.164;-3.124;2023-04-27T07:25:00;41.65;;;17.98;;
47009;SDS011;59230;54.164;-3.124;2023-04-27T07:27:29;35.75;;;17.33;;
47009;SDS011;59230;54.164;-3.124;2023-04-27T07:29:58;35.03;;;17.75;;
47009;SDS011;59230;54.164;-3.124;2023-04-27T07:32:24;36.80;;;16.98;;
47009;SDS011;59230;54.164;-3.124;2023-04-27T07:34:54;34.45;;;16.98;;
47009;SDS011;59230;54.164;-3.124;2023-04-27T07:37:20;36.03;;;16.65;;
47009;SDS011;59230;54.164;-3.124;2023-04-27T07:39:50;34.53;;;17.45;;
47009;SDS011;59230;54.164;-3.124;2023-04-27T07:42:18;38.85;;;16.13;;
47009;SDS011;59230;54.164;-3.124;2023-04-27T07:44:48;33.83;;;15.60;;
47009;SDS011;59230;54.164;-3.124;2023-04-27T07:47:16;38.33;;;17.85;;
47009;SDS011;59230;54.164;-3.124;2023-04-27T07:49:43;28.92;;;16.40;;
47009;SDS011;59230;54.164;-3.124;2023-04-27T07:52:21;31.55;;;15.18;;
47009;SDS011;59230;54.164;-3.124;2023-04-27T07:54:48;27.20;;;14.52;;
47009;SDS011;59230;54.164;-3.124;2023-04-27T07:57:18;29.85;;;15.20;;
47009;SDS011;59230;54.164;-3.124;2023-04-27T07:59:44;31.50;;;14.50;;
47009;SDS011;59230;54.164;-3.124;2023-04-27T08:02:21;38.38;;;15.55;;
47009;SDS011;59230;54.164;-3.124;2023-04-27T08:04:48;30.83;;;14.90;;
47009;SDS011;59230;54.164;-3.124;2023-04-27T08:07:16;26.67;;;14.77;;
47009;SDS011;59230;54.164;-3.124;2023-04-27T08:09:42;25.38;;;14.10;;
47009;SDS011;59230;54.164;-3.124;2023-04-27T08:12:07;33.42;;;15.35;;
47009;SDS011;59230;54.164;-3.124;2023-04-27T08:14:34;34.47;;;14.77;;
47009;SDS011;59230;54.164;-3.124;2023-04-27T08:17:01;27.73;;;14.10;;
47009;SDS011;59230;54.164;-3.124;2023-04-27T08:19:27;31.77;;;14.55;;
47009;SDS011;59230;54.164;-3.124;2023-04-27T08:21:53;30.52;;;15.27;;
47009;SDS011;59230;54.164;-3.124;2023-04-27T08:24:19;37.70;;;14.50;;
47009;SDS011;59230;54.164;-3.124;2023-04-27T08:26:48;29.25;;;14.38;;
47009;SDS011;59230;54.164;-3.124;2023-04-27T08:29:13;28.40;;;13.35;;
47009;SDS011;59230;54.164;-3.124;2023-04-27T08:31:40;26.38;;;14.57;;
47009;SDS011;59230;54.164;-3.124;2023-04-27T08:34:07;26.80;;;13.82;;
47009;SDS011;59230;54.164;-3.124;2023-04-27T08:36:32;29.10;;;12.30;;
47009;SDS011;59230;54.164;-3.124;2023-04-27T08:39:00;27.45;;;11.95;;
47009;SDS011;59230;54.164;-3.124;2023-04-27T08:41:34;21.02;;;11.98;;
47009;SDS011;59230;54.164;-3.124;2023-04-27T08:44:00;31.02;;;12.50;;
47009;SDS011;59230;54.164;-3.124;2023-04-27T08:46:26;29.48;;;12.30;;
47009;SDS011;59230;54.164;-3.124;2023-04-27T08:48:53;25.42;;;12.02;;
47009;SDS011;59230;54.164;-3.124;2023-04-27T08:51:20;22.35;;;11.23;;
47009;SDS011;59230;54.164;-3.124;2023-04-27T08:53:49;23.05;;;12.13;;
47009;SDS011;59230;54.164;-3.124;2023-04-27T08:56:18;25.80;;;13.35;;
47009;SDS011;59230;54.164;-3.124;2023-04-27T08:58:48;19.65;;;10.50;;
47009;SDS011;59230;54.164;-3.124;2023-04-27T09:01:13;19.73;;;10.18;;
47009;SDS011;59230;54.164;-3.124;2023-04-27T09:03:41;19.52;;;9.25;;
47009;SDS011;59230;54.164;-3.124;2023-04-27T09:06:11;17.95;;;8.20;;
47009;SDS011;59230;54.164;-3.124;2023-04-27T09:08:49;31.15;;;8.80;;
47009;SDS011;59230;54.164;-3.124;2023-04-27T09:11:37;18.52;;;8.30;;
47009;SDS011;59230;54.164;-3.124;2023-04-27T09:14:15;21.90;;;7.18;;
47009;SDS011;59230;54.164;-3.124;2023-04-27T09:16:58;23.52;;;7.75;;
47009;SDS011;59230;54.164;-3.124;2023-04-27T09:19:27;17.48;;;8.38;;
47009;SDS011;59230;54.164;-3.124;2023-04-27T09:22:08;19.23;;;8.40;;
47009;SDS011;59230;54.164;-3.124;2023-04-27T09:24:48;21.77;;;8.55;;
47009;SDS011;59230;54.164;-3.124;2023-04-27T09:27:18;15.88;;;7.85;;
47009;SDS011;59230;54.164;-3.124;2023-04-27T09:29:45;22.45;;;8.55;;
47009;SDS011;59230;54.164;-3.124;2023-04-27T09:32:14;21.23;;;8.73;;
47009;SDS011;59230;54.164;-3.124;2023-04-27T09:34:43;19.85;;;9.25;;
47009;SDS011;59230;54.164;-3.124;2023-04-27T09:37:09;20.08;;;8.07;;
47009;SDS011;59230;54.164;-3.124;2023-04-27T09:39:40;21.52;;;8.90;;
47009;SDS011;59230;54.164;-3.124;2023-04-27T09:42:07;25.83;;;9.10;;
47009;SDS011;59230;54.164;-3.124;2023-04-27T09:44:34;20.08;;;8.82;;
47009;SDS011;59230;54.164;-3.124;2023-04-27T09:47:04;23.92;;;9.43;;
47009;SDS011;59230;54.164;-3.124;2023-04-27T09:49:32;21.20;;;8.25;;
47009;SDS011;59230;54.164;-3.124;2023-04-27T09:52:01;16.10;;;9.10;;
47009;SDS011;59230;54.164;-3.124;2023-04-27T09:54:28;19.90;;;8.43;;
47009;SDS011;59230;54.164;-3.124;2023-04-27T10:00:00;23.35;;;9.35;;
47009;SDS011;59230;54.164;-3.124;2023-04-27T10:08:39;22.88;;;9.18;;
47009;SDS011;59230;54.164;-3.124;2023-04-27T10:11:15;21.48;;;9.65;;
47009;SDS011;59230;54.164;-3.124;2023-04-27T10:13:53;17.65;;;9.25;;
47009;SDS011;59230;54.164;-3.124;2023-04-27T10:16:19;21.02;;;9.95;;
47009;SDS011;59230;54.164;-3.124;2023-04-27T10:18:57;21.63;;;8.80;;
47009;SDS011;59230;54.164;-3.124;2023-04-27T10:21:26;20.85;;;9.50;;
47009;SDS011;59230;54.164;-3.124;2023-04-27T10:23:53;23.42;;;9.77;;
47009;SDS011;59230;54.164;-3.124;2023-04-27T10:26:26;25.30;;;9.70;;
47009;SDS011;59230;54.164;-3.124;2023-04-27T10:28:57;23.88;;;8.95;;
47009;SDS011;59230;54.164;-3.124;2023-04-27T10:31:42;21.15;;;9.07;;
47009;SDS011;59230;54.164;-3.124;2023-04-27T10:34:09;25.50;;;9.32;;
47009;SDS011;59230;54.164;-3.124;2023-04-27T10:36:46;22.35;;;9.68;;
47009;SDS011;59230;54.164;-3.124;2023-04-27T10:39:14;19.63;;;9.05;;
47009;SDS011;59230;54.164;-3.124;2023-04-27T10:41:52;19.02;;;8.52;;
47009;SDS011;59230;54.164;-3.124;2023-04-27T10:44:19;18.27;;;8.85;;
47009;SDS011;59230;54.164;-3.124;2023-04-27T10:46:49;17.63;;;8.00;;
47009;SDS011;59230;54.164;-3.124;2023-04-27T10:49:17;20.67;;;8.38;;
47009;SDS011;59230;54.164;-3.124;2023-04-27T10:51:45;19.73;;;8.27;;
47009;SDS011;59230;54.164;-3.124;2023-04-27T10:54:13;24.48;;;8.88;;
47009;SDS011;59230;54.164;-3.124;2023-04-27T10:56:41;19.80;;;7.70;;
47009;SDS011;59230;54.164;-3.124;2023-04-27T10:59:07;17.40;;;8.52;;
47009;SDS011;59230;54.164;-3.124;2023-04-27T11:01:35;19.70;;;8.25;;
47009;SDS011;59230;54.164;-3.124;2023-04-27T11:04:04;22.02;;;8.32;;
47009;SDS011;59230;54.164;-3.124;2023-04-27T11:06:31;16.83;;;7.97;;
47009;SDS011;59230;54.164;-3.124;2023-04-27T11:08:58;14.93;;;8.23;;
47009;SDS011;59230;54.164;-3.124;2023-04-27T11:11:25;21.90;;;8.48;;
47009;SDS011;59230;54.164;-3.124;2023-04-27T11:13:50;19.67;;;9.38;;
47009;SDS011;59230;54.164;-3.124;2023-04-27T11:16:19;19.05;;;8.48;;
47009;SDS011;59230;54.164;-3.124;2023-04-27T11:18:46;21.25;;;8.50;;
47009;SDS011;59230;54.164;-3.124;2023-04-27T11:21:17;25.13;;;9.57;;
47009;SDS011;59230;54.164;-3.124;2023-04-27T11:23:46;23.48;;;8.73;;
47009;SDS011;59230;54.164;-3.124;2023-04-27T11:26:18;22.70;;;8.95;;
47009;SDS011;59230;54.164;-3.124;2023-04-27T11:29:02;19.48;;;8.80;;
47009;SDS011;59230;54.164;-3.124;2023-04-27T11:31:38;21.23;;;8.45;;
47009;SDS011;59230;54.164;-3.124;2023-04-27T11:34:07;26.60;;;8.68;;
47009;SDS011;59230;54.164;-3.124;2023-04-27T11:36:33;17.30;;;7.57;;
47009;SDS011;59230;54.164;-3.124;2023-04-27T11:39:00;16.27;;;7.60;;
47009;SDS011;59230;54.164;-3.124;2023-04-27T11:41:32;19.85;;;8.45;;
47009;SDS011;59230;54.164;-3.124;2023-04-27T11:44:06;22.73;;;7.88;;
47009;SDS011;59230;54.164;-3.124;2023-04-27T11:46:42;24.67;;;8.30;;
47009;SDS011;59230;54.164;-3.124;2023-04-27T11:49:09;22.00;;;7.32;;
47009;SDS011;59230;54.164;-3.124;2023-04-27T11:51:38;18.00;;;8.30;;
47009;SDS011;59230;54.164;-3.124;2023-04-27T11:54:04;18.52;;;7.70;;
47009;SDS011;59230;54.164;-3.124;2023-04-27T11:56:38;19.63;;;8.27;;
47009;SDS011;59230;54.164;-3.124;2023-04-27T11:59:05;18.73;;;7.85;;
47009;SDS011;59230;54.164;-3.124;2023-04-27T12:01:32;18.70;;;9.07;;
47009;SDS011;59230;54.164;-3.124;2023-04-27T12:04:00;20.38;;;8.45;;
47009;SDS011;59230;54.164;-3.124;2023-04-27T12:06:28;24.60;;;9.10;;
47009;SDS011;59230;54.164;-3.124;2023-04-27T12:08:56;21.63;;;9.07;;
47009;SDS011;59230;54.164;-3.124;2023-04-27T12:11:26;22.50;;;9.15;;
47009;SDS011;59230;54.164;-3.124;2023-04-27T12:13:52;23.40;;;10.45;;
47009;SDS011;59230;54.164;-3.124;2023-04-27T12:16:20;25.15;;;9.52;;
47009;SDS011;59230;54.164;-3.124;2023-04-27T12:18:53;20.75;;;9.68;;
47009;SDS011;59230;54.164;-3.124;2023-04-27T12:21:20;23.05;;;8.75;;
47009;SDS011;59230;54.164;-3.124;2023-04-27T12:23:45;17.80;;;7.70;;
47009;SDS011;59230;54.164;-3.124;2023-04-27T12:26:12;21.30;;;8.00;;
47009;SDS011;59230;54.164;-3.124;2023-04-27T12:28:40;21.50;;;8.32;;
47009;SDS011;59230;54.164;-3.124;2023-04-27T12:31:05;19.00;;;7.95;;
47009;SDS011;59230;54.164;-3.124;2023-04-27T12:33:32;21.58;;;8.00;;
47009;SDS011;59230;54.164;-3.124;2023-04-27T12:35:57;19.27;;;7.10;;
47009;SDS011;59230;54.164;-3.124;2023-04-27T12:38:25;18.13;;;7.50;;
47009;SDS011;59230;54.164;-3.124;2023-04-27T12:40:53;16.02;;;6.88;;
47009;SDS011;59230;54.164;-3.124;2023-04-27T12:43:19;17.10;;;8.07;;
47009;SDS011;59230;54.164;-3.124;2023-04-27T12:45:47;17.88;;;7.80;;
47009;SDS011;59230;54.164;-3.124;2023-04-27T12:48:16;22.52;;;8.73;;
47009;SDS011;59230;54.164;-3.124;2023-04-27T12:50:49;21.17;;;8.70;;
47009;SDS011;59230;54.164;-3.124;2023-04-27T12:53:20;21.00;;;8.82;;
47009;SDS011;59230;54.164;-3.124;2023-04-27T12:55:47;22.50;;;8.65;;
47009;SDS011;59230;54.164;-3.124;2023-04-27T12:58:14;25.02;;;9.88;;
47009;SDS011;59230;54.164;-3.124;2023-04-27T13:00:40;16.67;;;8.85;;
47009;SDS011;59230;54.164;-3.124;2023-04-27T13:03:09;24.42;;;10.18;;
47009;SDS011;59230;54.164;-3.124;2023-04-27T13:05:37;27.30;;;9.30;;
47009;SDS011;59230;54.164;-3.124;2023-04-27T13:08:03;30.00;;;10.40;;
47009;SDS011;59230;54.164;-3.124;2023-04-27T13:10:30;15.63;;;9.73;;
47009;SDS011;59230;54.164;-3.124;2023-04-27T13:12:56;23.83;;;10.60;;
47009;SDS011;59230;54.164;-3.124;2023-04-27T13:15:25;24.40;;;10.75;;
47009;SDS011;59230;54.164;-3.124;2023-04-27T13:17:53;26.35;;;11.23;;
47009;SDS011;59230;54.164;-3.124;2023-04-27T13:20:23;26.05;;;12.02;;
47009;SDS011;59230;54.164;-3.124;2023-04-27T13:22:51;28.40;;;11.88;;
47009;SDS011;59230;54.164;-3.124;2023-04-27T13:25:17;27.10;;;12.73;;
47009;SDS011;59230;54.164;-3.124;2023-04-27T13:27:45;26.30;;;11.40;;
47009;SDS011;59230;54.164;-3.124;2023-04-27T13:30:10;24.95;;;11.55;;
47009;SDS011;59230;54.164;-3.124;2023-04-27T13:32:38;25.73;;;12.15;;
47009;SDS011;59230;54.164;-3.124;2023-04-27T13:35:05;23.92;;;12.50;;
47009;SDS011;59230;54.164;-3.124;2023-04-27T13:37:31;24.42;;;12.10;;
47009;SDS011;59230;54.164;-3.124;2023-04-27T13:39:57;26.85;;;13.65;;
47009;SDS011;59230;54.164;-3.124;2023-04-27T13:42:25;30.48;;;15.50;;
47009;SDS011;59230;54.164;-3.124;2023-04-27T13:44:53;32.53;;;15.55;;
47009;SDS011;59230;54.164;-3.124;2023-04-27T13:47:23;32.47;;;17.17;;
47009;SDS011;59230;54.164;-3.124;2023-04-27T13:49:50;33.15;;;15.38;;
47009;SDS011;59230;54.164;-3.124;2023-04-27T13:52:17;31.70;;;14.23;;
47009;SDS011;59230;54.164;-3.124;2023-04-27T13:54:48;29.90;;;13.45;;
47009;SDS011;59230;54.164;-3.124;2023-04-27T13:57:14;26.13;;;12.50;;
47009;SDS011;59230;54.164;-3.124;2023-04-27T13:59:40;22.63;;;12.20;;
47009;SDS011;59230;54.164;-3.124;2023-04-27T14:02:07;21.90;;;11.48;;
47009;SDS011;59230;54.164;-3.124;2023-04-27T14:04:33;27.35;;;11.85;;
47009;SDS011;59230;54.164;-3.124;2023-04-27T14:07:01;21.02;;;11.85;;
47009;SDS011;59230;54.164;-3.124;2023-04-27T14:09:28;25.08;;;10.98;;
47009;SDS011;59230;54.164;-3.124;2023-04-27T14:11:54;22.83;;;11.90;;
47009;SDS011;59230;54.164;-3.124;2023-04-27T14:14:20;23.10;;;13.95;;
47009;SDS011;59230;54.164;-3.124;2023-04-27T14:16:47;30.02;;;13.07;;
47009;SDS011;59230;54.164;-3.124;2023-04-27T14:19:15;29.15;;;13.15;;
47009;SDS011;59230;54.164;-3.124;2023-04-27T14:21:42;35.13;;;13.13;;
47009;SDS011;59230;54.164;-3.124;2023-04-27T14:24:08;33.65;;;13.63;;
47009;SDS011;59230;54.164;-3.124;2023-04-27T14:26:35;21.38;;;12.93;;